sensor_id;sensor_type;location;lat;lon;timestamp;P1;durP1;ratioP1;P2;durP2;ratioP2
26325;SDS011;14032;52.510;7.342;2022-12-20T00:01:11;6.65;;;3.17;;
26325;SDS011;14032;52.510;7.342;2022-12-20T00:03:39;5.90;;;3.03;;
26325;SDS011;14032;52.510;7.342;2022-12-20T00:06:05;4.45;;;2.42;;
26325;SDS011;14032;52.510;7.342;2022-12-20T00:08:31;8.40;;;3.28;;
26325;SDS011;14032;52.510;7.342;2022-12-20T00:10:59;5.25;;;2.60;;
26325;SDS011;14032;52.510;7.342;2022-12-20T00:13:26;4.57;;;2.83;;
26325;SDS011;14032;52.510;7.342;2022-12-20T00:16:05;4.93;;;2.97;;
26325;SDS011;14032;52.510;7.342;2022-12-20T00:18:35;9.00;;;3.10;;
26325;SDS011;14032;52.510;7.342;2022-12-20T00:21:02;5.22;;;3.03;;
26325;SDS011;14032;52.510;7.342;2022-12-20T00:23:29;7.35;;;2.75;;
26325;SDS011;14032;52.510;7.342;2022-12-20T00:26:06;8.00;;;3.17;;
26325;SDS011;14032;52.510;7.342;2022-12-20T00:28:37;6.28;;;2.95;;
26325;SDS011;14032;52.510;7.342;2022-12-20T00:31:04;8.20;;;2.88;;
26325;SDS011;14032;52.510;7.342;2022-12-20T00:33:31;8.02;;;3.03;;
26325;SDS011;14032;52.510;7.342;2022-12-20T00:35:57;9.00;;;3.17;;
26325;SDS011;14032;52.510;7.342;2022-12-20T00:38:23;8.98;;;3.10;;
26325;SDS011;14032;52.510;7.342;2022-12-20T00:41:02;10.13;;;3.15;;
26325;SDS011;14032;52.510;7.342;2022-12-20T00:43:33;6.22;;;3.03;;
26325;SDS011;14032;52.510;7.342;2022-12-20T00:45:58;12.05;;;3.25;;
26325;SDS011;14032;52.510;7.342;2022-12-20T00:48:25;5.93;;;3.08;;
26325;SDS011;14032;52.510;7.342;2022-12-20T00:50:51;8.13;;;3.38;;
26325;SDS011;14032;52.510;7.342;2022-12-20T00:53:17;5.70;;;3.10;;
26325;SDS011;14032;52.510;7.342;2022-12-20T00:55:46;8.13;;;3.00;;
26325;SDS011;14032;52.510;7.342;2022-12-20T00:58:11;7.57;;;3.00;;
26325;SDS011;14032;52.510;7.342;2022-12-20T01:00:38;8.05;;;2.58;;
26325;SDS011;14032;52.510;7.342;2022-12-20T01:03:04;6.85;;;3.10;;
26325;SDS011;14032;52.510;7.342;2022-12-20T01:05:30;7.60;;;2.95;;
26325;SDS011;14032;52.510;7.342;2022-12-20T01:07:56;8.45;;;2.90;;
26325;SDS011;14032;52.510;7.342;2022-12-20T01:10:22;7.28;;;3.10;;
26325;SDS011;14032;52.510;7.342;2022-12-20T01:12:47;5.10;;;2.53;;
26325;SDS011;14032;52.510;7.342;2022-12-20T01:15:13;4.85;;;2.38;;
26325;SDS011;14032;52.510;7.342;2022-12-20T01:17:39;7.38;;;2.67;;
26325;SDS011;14032;52.510;7.342;2022-12-20T01:20:05;8.35;;;2.80;;
26325;SDS011;14032;52.510;7.342;2022-12-20T01:22:31;6.47;;;2.80;;
26325;SDS011;14032;52.510;7.342;2022-12-20T01:24:57;5.15;;;2.70;;
26325;SDS011;14032;52.510;7.342;2022-12-20T01:27:22;9.60;;;3.03;;
26325;SDS011;14032;52.510;7.342;2022-12-20T01:29:48;8.05;;;2.88;;
26325;SDS011;14032;52.510;7.342;2022-12-20T01:32:14;6.93;;;2.42;;
26325;SDS011;14032;52.510;7.342;2022-12-20T01:34:39;4.90;;;2.30;;
26325;SDS011;14032;52.510;7.342;2022-12-20T01:37:05;7.25;;;2.80;;
26325;SDS011;14032;52.510;7.342;2022-12-20T01:39:31;5.00;;;2.30;;
26325;SDS011;14032;52.510;7.342;2022-12-20T01:41:56;4.88;;;2.60;;
26325;SDS011;14032;52.510;7.342;2022-12-20T01:46:48;10.57;;;2.30;;
26325;SDS011;14032;52.510;7.342;2022-12-20T01:51:47;5.32;;;2.65;;
26325;SDS011;14032;52.510;7.342;2022-12-20T01:54:27;7.40;;;2.42;;
26325;SDS011;14032;52.510;7.342;2022-12-20T01:57:00;4.38;;;2.50;;
26325;SDS011;14032;52.510;7.342;2022-12-20T01:59:27;6.68;;;2.55;;
26325;SDS011;14032;52.510;7.342;2022-12-20T02:01:58;7.35;;;2.65;;
26325;SDS011;14032;52.510;7.342;2022-12-20T02:04:27;5.88;;;2.33;;
26325;SDS011;14032;52.510;7.342;2022-12-20T02:06:53;5.72;;;2.30;;
26325;SDS011;14032;52.510;7.342;2022-12-20T02:09:19;6.20;;;2.25;;
26325;SDS011;14032;52.510;7.342;2022-12-20T02:11:56;4.95;;;2.33;;
26325;SDS011;14032;52.510;7.342;2022-12-20T02:14:36;6.65;;;2.58;;
26325;SDS011;14032;52.510;7.342;2022-12-20T02:25:45;2.65;;;1.83;;
26325;SDS011;14032;52.510;7.342;2022-12-20T02:31:23;5.50;;;2.30;;
26325;SDS011;14032;52.510;7.342;2022-12-20T02:33:51;3.33;;;2.20;;
26325;SDS011;14032;52.510;7.342;2022-12-20T02:36:21;6.10;;;2.15;;
26325;SDS011;14032;52.510;7.342;2022-12-20T02:38:47;5.63;;;2.53;;
26325;SDS011;14032;52.510;7.342;2022-12-20T02:41:20;7.70;;;2.58;;
26325;SDS011;14032;52.510;7.342;2022-12-20T02:43:55;5.28;;;2.13;;
26325;SDS011;14032;52.510;7.342;2022-12-20T02:46:44;6.70;;;2.45;;
26325;SDS011;14032;52.510;7.342;2022-12-20T02:49:13;5.03;;;2.28;;
26325;SDS011;14032;52.510;7.342;2022-12-20T02:51:42;5.72;;;2.17;;
26325;SDS011;14032;52.510;7.342;2022-12-20T02:54:11;5.97;;;2.10;;
26325;SDS011;14032;52.510;7.342;2022-12-20T02:56:38;4.13;;;2.28;;
26325;SDS011;14032;52.510;7.342;2022-12-20T02:59:12;6.43;;;2.38;;
26325;SDS011;14032;52.510;7.342;2022-12-20T03:02:01;6.43;;;2.22;;
26325;SDS011;14032;52.510;7.342;2022-12-20T03:04:29;5.97;;;1.80;;
26325;SDS011;14032;52.510;7.342;2022-12-20T03:09:25;5.20;;;2.90;;
26325;SDS011;14032;52.510;7.342;2022-12-20T03:11:51;4.10;;;2.17;;
26325;SDS011;14032;52.510;7.342;2022-12-20T03:14:17;4.70;;;2.22;;
26325;SDS011;14032;52.510;7.342;2022-12-20T03:16:43;5.82;;;2.03;;
26325;SDS011;14032;52.510;7.342;2022-12-20T03:19:09;4.03;;;1.98;;
26325;SDS011;14032;52.510;7.342;2022-12-20T03:21:35;4.13;;;2.00;;
26325;SDS011;14032;52.510;7.342;2022-12-20T03:24:00;6.97;;;2.30;;
26325;SDS011;14032;52.510;7.342;2022-12-20T03:26:26;6.15;;;2.45;;
26325;SDS011;14032;52.510;7.342;2022-12-20T03:28:51;4.93;;;2.50;;
26325;SDS011;14032;52.510;7.342;2022-12-20T03:31:17;3.35;;;2.15;;
26325;SDS011;14032;52.510;7.342;2022-12-20T03:33:42;5.97;;;2.85;;
26325;SDS011;14032;52.510;7.342;2022-12-20T03:36:08;5.30;;;2.55;;
26325;SDS011;14032;52.510;7.342;2022-12-20T03:38:34;4.28;;;2.45;;
26325;SDS011;14032;52.510;7.342;2022-12-20T03:41:00;3.83;;;2.38;;
26325;SDS011;14032;52.510;7.342;2022-12-20T03:43:26;6.93;;;2.22;;
26325;SDS011;14032;52.510;7.342;2022-12-20T03:45:52;8.57;;;2.90;;
26325;SDS011;14032;52.510;7.342;2022-12-20T03:48:17;6.43;;;3.05;;
26325;SDS011;14032;52.510;7.342;2022-12-20T03:50:43;9.27;;;3.70;;
26325;SDS011;14032;52.510;7.342;2022-12-20T03:53:08;8.82;;;3.38;;
26325;SDS011;14032;52.510;7.342;2022-12-20T03:55:34;5.65;;;3.08;;
26325;SDS011;14032;52.510;7.342;2022-12-20T03:57:59;6.65;;;3.50;;
26325;SDS011;14032;52.510;7.342;2022-12-20T04:00:25;7.00;;;3.58;;
26325;SDS011;14032;52.510;7.342;2022-12-20T04:02:51;8.07;;;3.70;;
26325;SDS011;14032;52.510;7.342;2022-12-20T04:05:16;9.43;;;4.65;;
26325;SDS011;14032;52.510;7.342;2022-12-20T04:07:42;11.00;;;4.50;;
26325;SDS011;14032;52.510;7.342;2022-12-20T04:10:09;8.48;;;4.78;;
26325;SDS011;14032;52.510;7.342;2022-12-20T04:12:35;6.95;;;4.45;;
26325;SDS011;14032;52.510;7.342;2022-12-20T04:15:00;6.50;;;4.20;;
26325;SDS011;14032;52.510;7.342;2022-12-20T04:17:26;7.72;;;4.30;;
26325;SDS011;14032;52.510;7.342;2022-12-20T04:19:52;7.35;;;4.65;;
26325;SDS011;14032;52.510;7.342;2022-12-20T04:22:17;10.55;;;5.53;;
26325;SDS011;14032;52.510;7.342;2022-12-20T04:24:43;7.72;;;4.45;;
26325;SDS011;14032;52.510;7.342;2022-12-20T04:27:08;12.10;;;5.38;;
26325;SDS011;14032;52.510;7.342;2022-12-20T04:29:34;10.88;;;5.32;;
26325;SDS011;14032;52.510;7.342;2022-12-20T04:32:00;9.98;;;5.55;;
26325;SDS011;14032;52.510;7.342;2022-12-20T04:34:25;10.10;;;5.65;;
26325;SDS011;14032;52.510;7.342;2022-12-20T04:36:51;10.60;;;5.50;;
26325;SDS011;14032;52.510;7.342;2022-12-20T04:39:16;12.63;;;6.40;;
26325;SDS011;14032;52.510;7.342;2022-12-20T04:41:42;10.18;;;7.15;;
26325;SDS011;14032;52.510;7.342;2022-12-20T04:44:08;8.85;;;6.55;;
26325;SDS011;14032;52.510;7.342;2022-12-20T04:46:33;14.15;;;7.68;;
26325;SDS011;14032;52.510;7.342;2022-12-20T04:48:59;11.25;;;7.45;;
26325;SDS011;14032;52.510;7.342;2022-12-20T04:51:25;12.30;;;7.60;;
26325;SDS011;14032;52.510;7.342;2022-12-20T04:53:51;10.32;;;7.72;;
26325;SDS011;14032;52.510;7.342;2022-12-20T04:56:21;13.60;;;8.38;;
26325;SDS011;14032;52.510;7.342;2022-12-20T04:58:51;14.65;;;8.10;;
26325;SDS011;14032;52.510;7.342;2022-12-20T05:01:19;11.55;;;8.07;;
26325;SDS011;14032;52.510;7.342;2022-12-20T05:03:45;11.35;;;8.05;;
26325;SDS011;14032;52.510;7.342;2022-12-20T05:06:11;10.95;;;7.65;;
26325;SDS011;14032;52.510;7.342;2022-12-20T05:08:37;12.57;;;7.30;;
26325;SDS011;14032;52.510;7.342;2022-12-20T05:11:03;9.88;;;6.70;;
26325;SDS011;14032;52.510;7.342;2022-12-20T05:13:30;13.35;;;6.95;;
26325;SDS011;14032;52.510;7.342;2022-12-20T05:15:56;12.00;;;6.60;;
26325;SDS011;14032;52.510;7.342;2022-12-20T05:18:22;13.05;;;7.25;;
26325;SDS011;14032;52.510;7.342;2022-12-20T05:20:49;12.55;;;7.63;;
26325;SDS011;14032;52.510;7.342;2022-12-20T05:23:35;13.63;;;6.18;;
26325;SDS011;14032;52.510;7.342;2022-12-20T05:26:31;11.70;;;6.88;;
26325;SDS011;14032;52.510;7.342;2022-12-20T05:29:00;11.00;;;6.60;;
26325;SDS011;14032;52.510;7.342;2022-12-20T05:31:26;11.23;;;7.15;;
26325;SDS011;14032;52.510;7.342;2022-12-20T05:33:51;11.07;;;6.70;;
26325;SDS011;14032;52.510;7.342;2022-12-20T05:36:18;13.43;;;6.90;;
26325;SDS011;14032;52.510;7.342;2022-12-20T05:38:44;10.63;;;6.68;;
26325;SDS011;14032;52.510;7.342;2022-12-20T05:41:09;9.88;;;6.20;;
26325;SDS011;14032;52.510;7.342;2022-12-20T05:43:35;11.30;;;6.60;;
26325;SDS011;14032;52.510;7.342;2022-12-20T05:46:01;11.80;;;5.93;;
26325;SDS011;14032;52.510;7.342;2022-12-20T05:48:26;12.85;;;6.30;;
26325;SDS011;14032;52.510;7.342;2022-12-20T05:50:52;10.88;;;6.30;;
26325;SDS011;14032;52.510;7.342;2022-12-20T05:53:17;10.52;;;5.70;;
26325;SDS011;14032;52.510;7.342;2022-12-20T05:55:44;11.43;;;6.25;;
26325;SDS011;14032;52.510;7.342;2022-12-20T05:58:12;8.13;;;5.32;;
26325;SDS011;14032;52.510;7.342;2022-12-20T06:00:41;11.95;;;6.03;;
26325;SDS011;14032;52.510;7.342;2022-12-20T06:03:08;11.60;;;5.60;;
26325;SDS011;14032;52.510;7.342;2022-12-20T06:05:36;11.50;;;6.45;;
26325;SDS011;14032;52.510;7.342;2022-12-20T06:08:03;12.13;;;6.03;;
26325;SDS011;14032;52.510;7.342;2022-12-20T06:10:30;11.38;;;5.80;;
26325;SDS011;14032;52.510;7.342;2022-12-20T06:12:56;8.60;;;5.75;;
26325;SDS011;14032;52.510;7.342;2022-12-20T06:15:22;11.05;;;5.50;;
26325;SDS011;14032;52.510;7.342;2022-12-20T06:17:47;10.27;;;5.30;;
26325;SDS011;14032;52.510;7.342;2022-12-20T06:20:13;9.18;;;5.13;;
26325;SDS011;14032;52.510;7.342;2022-12-20T06:22:38;9.25;;;5.53;;
26325;SDS011;14032;52.510;7.342;2022-12-20T06:25:04;16.65;;;5.72;;
26325;SDS011;14032;52.510;7.342;2022-12-20T06:27:33;7.90;;;5.53;;
26325;SDS011;14032;52.510;7.342;2022-12-20T06:29:59;10.10;;;5.90;;
26325;SDS011;14032;52.510;7.342;2022-12-20T06:32:24;9.52;;;5.47;;
26325;SDS011;14032;52.510;7.342;2022-12-20T06:34:50;8.18;;;4.60;;
26325;SDS011;14032;52.510;7.342;2022-12-20T06:37:15;8.13;;;4.97;;
26325;SDS011;14032;52.510;7.342;2022-12-20T06:39:41;10.48;;;4.88;;
26325;SDS011;14032;52.510;7.342;2022-12-20T06:42:07;5.13;;;3.55;;
26325;SDS011;14032;52.510;7.342;2022-12-20T06:44:32;12.50;;;4.63;;
26325;SDS011;14032;52.510;7.342;2022-12-20T06:46:58;7.60;;;4.43;;
26325;SDS011;14032;52.510;7.342;2022-12-20T06:49:23;9.75;;;4.82;;
26325;SDS011;14032;52.510;7.342;2022-12-20T06:51:49;7.28;;;4.50;;
26325;SDS011;14032;52.510;7.342;2022-12-20T06:54:14;11.38;;;4.70;;
26325;SDS011;14032;52.510;7.342;2022-12-20T06:56:40;9.98;;;4.97;;
26325;SDS011;14032;52.510;7.342;2022-12-20T06:59:05;7.38;;;4.65;;
26325;SDS011;14032;52.510;7.342;2022-12-20T07:01:31;8.50;;;4.85;;
26325;SDS011;14032;52.510;7.342;2022-12-20T07:03:57;9.88;;;5.35;;
26325;SDS011;14032;52.510;7.342;2022-12-20T07:06:22;9.35;;;5.15;;
26325;SDS011;14032;52.510;7.342;2022-12-20T07:08:48;10.18;;;5.10;;
26325;SDS011;14032;52.510;7.342;2022-12-20T07:11:13;11.23;;;5.28;;
26325;SDS011;14032;52.510;7.342;2022-12-20T07:13:39;8.10;;;4.95;;
26325;SDS011;14032;52.510;7.342;2022-12-20T07:16:05;8.90;;;4.85;;
26325;SDS011;14032;52.510;7.342;2022-12-20T07:18:32;10.43;;;5.28;;
26325;SDS011;14032;52.510;7.342;2022-12-20T07:20:59;8.27;;;4.53;;
26325;SDS011;14032;52.510;7.342;2022-12-20T07:23:26;8.70;;;5.28;;
26325;SDS011;14032;52.510;7.342;2022-12-20T07:25:53;6.72;;;4.22;;
26325;SDS011;14032;52.510;7.342;2022-12-20T07:28:19;9.52;;;4.35;;
26325;SDS011;14032;52.510;7.342;2022-12-20T07:30:45;9.70;;;5.00;;
26325;SDS011;14032;52.510;7.342;2022-12-20T07:33:10;9.38;;;4.30;;
26325;SDS011;14032;52.510;7.342;2022-12-20T07:35:37;11.10;;;4.72;;
26325;SDS011;14032;52.510;7.342;2022-12-20T07:38:02;10.02;;;4.57;;
26325;SDS011;14032;52.510;7.342;2022-12-20T07:40:28;10.57;;;4.25;;
26325;SDS011;14032;52.510;7.342;2022-12-20T07:42:54;7.88;;;4.75;;
26325;SDS011;14032;52.510;7.342;2022-12-20T07:45:19;7.68;;;4.40;;
26325;SDS011;14032;52.510;7.342;2022-12-20T07:47:45;9.70;;;4.45;;
26325;SDS011;14032;52.510;7.342;2022-12-20T07:50:10;7.82;;;4.50;;
26325;SDS011;14032;52.510;7.342;2022-12-20T07:52:36;10.45;;;5.18;;
26325;SDS011;14032;52.510;7.342;2022-12-20T07:55:03;7.85;;;4.53;;
26325;SDS011;14032;52.510;7.342;2022-12-20T07:57:36;8.90;;;4.53;;
26325;SDS011;14032;52.510;7.342;2022-12-20T08:00:07;7.30;;;4.40;;
26325;SDS011;14032;52.510;7.342;2022-12-20T08:02:37;8.20;;;4.25;;
26325;SDS011;14032;52.510;7.342;2022-12-20T08:07:37;7.10;;;4.07;;
26325;SDS011;14032;52.510;7.342;2022-12-20T08:10:07;12.40;;;4.40;;
26325;SDS011;14032;52.510;7.342;2022-12-20T08:12:35;6.93;;;4.15;;
26325;SDS011;14032;52.510;7.342;2022-12-20T08:15:02;6.82;;;3.78;;
26325;SDS011;14032;52.510;7.342;2022-12-20T08:17:31;6.57;;;3.90;;
26325;SDS011;14032;52.510;7.342;2022-12-20T08:19:56;6.85;;;3.85;;
26325;SDS011;14032;52.510;7.342;2022-12-20T08:22:22;7.65;;;3.65;;
26325;SDS011;14032;52.510;7.342;2022-12-20T08:24:47;6.45;;;4.22;;
26325;SDS011;14032;52.510;7.342;2022-12-20T08:27:13;7.63;;;3.85;;
26325;SDS011;14032;52.510;7.342;2022-12-20T08:29:39;9.27;;;4.07;;
26325;SDS011;14032;52.510;7.342;2022-12-20T08:32:05;7.50;;;3.83;;
26325;SDS011;14032;52.510;7.342;2022-12-20T08:34:31;6.18;;;3.50;;
26325;SDS011;14032;52.510;7.342;2022-12-20T08:36:56;9.90;;;3.65;;
26325;SDS011;14032;52.510;7.342;2022-12-20T08:39:22;9.48;;;3.90;;
26325;SDS011;14032;52.510;7.342;2022-12-20T08:41:47;9.35;;;4.13;;
26325;SDS011;14032;52.510;7.342;2022-12-20T08:44:13;8.50;;;3.60;;
26325;SDS011;14032;52.510;7.342;2022-12-20T08:46:38;8.70;;;3.55;;
26325;SDS011;14032;52.510;7.342;2022-12-20T08:49:04;4.50;;;3.10;;
26325;SDS011;14032;52.510;7.342;2022-12-20T08:51:30;6.45;;;3.38;;
26325;SDS011;14032;52.510;7.342;2022-12-20T08:53:55;7.75;;;4.07;;
26325;SDS011;14032;52.510;7.342;2022-12-20T08:56:21;8.07;;;3.38;;
26325;SDS011;14032;52.510;7.342;2022-12-20T08:58:47;6.03;;;3.15;;
26325;SDS011;14032;52.510;7.342;2022-12-20T09:01:13;6.30;;;3.03;;
26325;SDS011;14032;52.510;7.342;2022-12-20T09:03:40;6.22;;;3.30;;
26325;SDS011;14032;52.510;7.342;2022-12-20T09:06:07;4.85;;;3.00;;
26325;SDS011;14032;52.510;7.342;2022-12-20T09:08:38;7.20;;;3.03;;
26325;SDS011;14032;52.510;7.342;2022-12-20T09:11:09;8.25;;;3.30;;
26325;SDS011;14032;52.510;7.342;2022-12-20T09:13:37;7.55;;;3.20;;
26325;SDS011;14032;52.510;7.342;2022-12-20T09:16:03;8.15;;;3.22;;
26325;SDS011;14032;52.510;7.342;2022-12-20T09:18:30;7.97;;;3.25;;
26325;SDS011;14032;52.510;7.342;2022-12-20T09:20:59;14.02;;;8.48;;
26325;SDS011;14032;52.510;7.342;2022-12-20T09:23:27;5.70;;;3.50;;
26325;SDS011;14032;52.510;7.342;2022-12-20T09:25:53;8.63;;;2.80;;
26325;SDS011;14032;52.510;7.342;2022-12-20T09:28:19;4.90;;;2.90;;
26325;SDS011;14032;52.510;7.342;2022-12-20T09:30:45;7.00;;;4.13;;
26325;SDS011;14032;52.510;7.342;2022-12-20T09:33:11;6.78;;;3.00;;
26325;SDS011;14032;52.510;7.342;2022-12-20T09:35:42;12.23;;;7.13;;
26325;SDS011;14032;52.510;7.342;2022-12-20T09:38:09;8.18;;;3.45;;
26325;SDS011;14032;52.510;7.342;2022-12-20T09:40:34;5.30;;;2.72;;
26325;SDS011;14032;52.510;7.342;2022-12-20T09:43:02;6.65;;;3.78;;
26325;SDS011;14032;52.510;7.342;2022-12-20T09:45:30;8.75;;;3.40;;
26325;SDS011;14032;52.510;7.342;2022-12-20T09:47:59;7.70;;;3.85;;
26325;SDS011;14032;52.510;7.342;2022-12-20T09:50:48;7.85;;;3.25;;
26325;SDS011;14032;52.510;7.342;2022-12-20T09:53:36;11.98;;;3.63;;
26325;SDS011;14032;52.510;7.342;2022-12-20T09:56:37;5.53;;;2.60;;
26325;SDS011;14032;52.510;7.342;2022-12-20T09:59:12;5.25;;;2.60;;
26325;SDS011;14032;52.510;7.342;2022-12-20T10:01:42;7.47;;;2.75;;
26325;SDS011;14032;52.510;7.342;2022-12-20T10:04:22;5.20;;;2.30;;
26325;SDS011;14032;52.510;7.342;2022-12-20T10:10:25;4.22;;;2.35;;
26325;SDS011;14032;52.510;7.342;2022-12-20T10:25:50;6.37;;;2.63;;
26325;SDS011;14032;52.510;7.342;2022-12-20T10:28:23;6.25;;;2.50;;
26325;SDS011;14032;52.510;7.342;2022-12-20T10:30:52;4.38;;;2.15;;
26325;SDS011;14032;52.510;7.342;2022-12-20T10:33:21;5.97;;;2.80;;
26325;SDS011;14032;52.510;7.342;2022-12-20T10:35:48;5.75;;;2.60;;
26325;SDS011;14032;52.510;7.342;2022-12-20T10:38:15;7.45;;;2.85;;
26325;SDS011;14032;52.510;7.342;2022-12-20T10:41:00;5.43;;;3.20;;
26325;SDS011;14032;52.510;7.342;2022-12-20T10:43:27;7.50;;;2.97;;
26325;SDS011;14032;52.510;7.342;2022-12-20T10:46:06;6.07;;;2.78;;
26325;SDS011;14032;52.510;7.342;2022-12-20T10:51:11;7.72;;;3.35;;
26325;SDS011;14032;52.510;7.342;2022-12-20T10:53:49;7.13;;;2.97;;
26325;SDS011;14032;52.510;7.342;2022-12-20T10:56:23;8.05;;;3.78;;
26325;SDS011;14032;52.510;7.342;2022-12-20T10:59:01;11.93;;;3.40;;
26325;SDS011;14032;52.510;7.342;2022-12-20T11:01:46;7.90;;;3.50;;
26325;SDS011;14032;52.510;7.342;2022-12-20T11:06:56;7.32;;;3.88;;
26325;SDS011;14032;52.510;7.342;2022-12-20T11:09:24;10.30;;;3.47;;
26325;SDS011;14032;52.510;7.342;2022-12-20T11:12:04;10.10;;;3.72;;
26325;SDS011;14032;52.510;7.342;2022-12-20T11:14:35;9.15;;;3.38;;
26325;SDS011;14032;52.510;7.342;2022-12-20T11:17:05;9.18;;;3.60;;
26325;SDS011;14032;52.510;7.342;2022-12-20T11:22:45;12.93;;;4.03;;
26325;SDS011;14032;52.510;7.342;2022-12-20T11:28:50;11.32;;;3.78;;
26325;SDS011;14032;52.510;7.342;2022-12-20T11:34:28;10.90;;;4.35;;
26325;SDS011;14032;52.510;7.342;2022-12-20T11:42:25;9.18;;;3.95;;
26325;SDS011;14032;52.510;7.342;2022-12-20T11:53:09;8.38;;;3.88;;
26325;SDS011;14032;52.510;7.342;2022-12-20T11:55:53;8.63;;;4.50;;
26325;SDS011;14032;52.510;7.342;2022-12-20T11:58:29;9.32;;;4.53;;
26325;SDS011;14032;52.510;7.342;2022-12-20T12:01:14;11.23;;;4.13;;
26325;SDS011;14032;52.510;7.342;2022-12-20T12:03:55;9.90;;;4.00;;
26325;SDS011;14032;52.510;7.342;2022-12-20T12:06:35;8.82;;;4.47;;
26325;SDS011;14032;52.510;7.342;2022-12-20T12:12:21;9.88;;;4.68;;
26325;SDS011;14032;52.510;7.342;2022-12-20T12:17:32;7.00;;;3.83;;
26325;SDS011;14032;52.510;7.342;2022-12-20T12:20:39;11.95;;;4.60;;
26325;SDS011;14032;52.510;7.342;2022-12-20T12:22:57;12.52;;;5.15;;
26325;SDS011;14032;52.510;7.342;2022-12-20T12:25:40;7.43;;;4.60;;
26325;SDS011;14032;52.510;7.342;2022-12-20T12:28:05;10.73;;;4.47;;
26325;SDS011;14032;52.510;7.342;2022-12-20T12:30:38;11.68;;;4.30;;
26325;SDS011;14032;52.510;7.342;2022-12-20T12:33:11;9.98;;;4.93;;
26325;SDS011;14032;52.510;7.342;2022-12-20T12:41:21;12.35;;;5.53;;
26325;SDS011;14032;52.510;7.342;2022-12-20T12:46:53;13.05;;;5.18;;
26325;SDS011;14032;52.510;7.342;2022-12-20T12:49:23;6.45;;;4.38;;
26325;SDS011;14032;52.510;7.342;2022-12-20T12:51:53;13.25;;;4.82;;
26325;SDS011;14032;52.510;7.342;2022-12-20T12:54:29;8.00;;;4.40;;
26325;SDS011;14032;52.510;7.342;2022-12-20T12:57:01;10.38;;;4.88;;
26325;SDS011;14032;52.510;7.342;2022-12-20T13:04:28;9.50;;;4.88;;
26325;SDS011;14032;52.510;7.342;2022-12-20T13:07:00;11.77;;;5.05;;
26325;SDS011;14032;52.510;7.342;2022-12-20T13:09:45;10.95;;;5.45;;
26325;SDS011;14032;52.510;7.342;2022-12-20T13:12:45;13.48;;;5.38;;
26325;SDS011;14032;52.510;7.342;2022-12-20T13:17:51;12.90;;;4.95;;
26325;SDS011;14032;52.510;7.342;2022-12-20T13:20:18;7.82;;;4.82;;
26325;SDS011;14032;52.510;7.342;2022-12-20T13:25:31;9.70;;;4.85;;
26325;SDS011;14032;52.510;7.342;2022-12-20T13:33:22;7.13;;;5.05;;
26325;SDS011;14032;52.510;7.342;2022-12-20T13:36:03;11.82;;;5.55;;
26325;SDS011;14032;52.510;7.342;2022-12-20T13:41:22;6.90;;;4.78;;
26325;SDS011;14032;52.510;7.342;2022-12-20T13:43:50;10.52;;;4.78;;
26325;SDS011;14032;52.510;7.342;2022-12-20T13:46:25;7.95;;;5.05;;
26325;SDS011;14032;52.510;7.342;2022-12-20T13:49:14;9.50;;;4.75;;
26325;SDS011;14032;52.510;7.342;2022-12-20T13:54:56;8.05;;;5.10;;
26325;SDS011;14032;52.510;7.342;2022-12-20T13:57:28;12.18;;;5.57;;
26325;SDS011;14032;52.510;7.342;2022-12-20T14:00:18;9.85;;;5.30;;
26325;SDS011;14032;52.510;7.342;2022-12-20T14:02:49;7.95;;;5.32;;
26325;SDS011;14032;52.510;7.342;2022-12-20T14:10:42;11.82;;;5.60;;
26325;SDS011;14032;52.510;7.342;2022-12-20T14:13:19;10.23;;;5.82;;
26325;SDS011;14032;52.510;7.342;2022-12-20T14:15:49;10.52;;;6.30;;
26325;SDS011;14032;52.510;7.342;2022-12-20T14:20:46;10.65;;;6.25;;
26325;SDS011;14032;52.510;7.342;2022-12-20T14:23:21;11.55;;;6.80;;
26325;SDS011;14032;52.510;7.342;2022-12-20T14:25:59;12.40;;;6.72;;
26325;SDS011;14032;52.510;7.342;2022-12-20T14:28:38;12.20;;;6.38;;
26325;SDS011;14032;52.510;7.342;2022-12-20T14:33:59;13.80;;;6.90;;
26325;SDS011;14032;52.510;7.342;2022-12-20T14:36:26;11.07;;;6.40;;
26325;SDS011;14032;52.510;7.342;2022-12-20T14:38:52;13.27;;;6.93;;
26325;SDS011;14032;52.510;7.342;2022-12-20T14:41:28;12.10;;;6.85;;
26325;SDS011;14032;52.510;7.342;2022-12-20T14:46:36;14.25;;;7.82;;
26325;SDS011;14032;52.510;7.342;2022-12-20T14:51:49;12.23;;;7.40;;
26325;SDS011;14032;52.510;7.342;2022-12-20T14:54:26;10.70;;;6.95;;
26325;SDS011;14032;52.510;7.342;2022-12-20T14:56:52;15.75;;;7.68;;
26325;SDS011;14032;52.510;7.342;2022-12-20T14:59:23;11.18;;;7.00;;
26325;SDS011;14032;52.510;7.342;2022-12-20T15:01:51;16.02;;;7.95;;
26325;SDS011;14032;52.510;7.342;2022-12-20T15:04:30;14.07;;;8.00;;
26325;SDS011;14032;52.510;7.342;2022-12-20T15:06:58;11.27;;;8.10;;
26325;SDS011;14032;52.510;7.342;2022-12-20T15:09:26;17.05;;;8.63;;
26325;SDS011;14032;52.510;7.342;2022-12-20T15:11:52;10.52;;;7.70;;
26325;SDS011;14032;52.510;7.342;2022-12-20T15:14:21;10.85;;;8.18;;
26325;SDS011;14032;52.510;7.342;2022-12-20T15:17:04;15.57;;;8.07;;
26325;SDS011;14032;52.510;7.342;2022-12-20T15:19:34;14.90;;;8.95;;
26325;SDS011;14032;52.510;7.342;2022-12-20T15:22:00;16.38;;;9.18;;
26325;SDS011;14032;52.510;7.342;2022-12-20T15:24:27;14.63;;;9.00;;
26325;SDS011;14032;52.510;7.342;2022-12-20T15:26:53;15.68;;;8.80;;
26325;SDS011;14032;52.510;7.342;2022-12-20T15:29:20;13.02;;;9.38;;
26325;SDS011;14032;52.510;7.342;2022-12-20T15:31:48;15.10;;;9.57;;
26325;SDS011;14032;52.510;7.342;2022-12-20T15:36:55;16.23;;;10.90;;
26325;SDS011;14032;52.510;7.342;2022-12-20T15:39:23;15.98;;;10.82;;
26325;SDS011;14032;52.510;7.342;2022-12-20T15:41:50;15.10;;;10.20;;
26325;SDS011;14032;52.510;7.342;2022-12-20T15:44:18;15.13;;;10.65;;
26325;SDS011;14032;52.510;7.342;2022-12-20T15:46:46;16.25;;;11.80;;
26325;SDS011;14032;52.510;7.342;2022-12-20T15:49:16;14.50;;;10.80;;
26325;SDS011;14032;52.510;7.342;2022-12-20T15:51:45;15.32;;;11.57;;
26325;SDS011;14032;52.510;7.342;2022-12-20T15:54:20;17.38;;;12.05;;
26325;SDS011;14032;52.510;7.342;2022-12-20T15:56:53;15.50;;;12.27;;
26325;SDS011;14032;52.510;7.342;2022-12-20T15:59:23;16.33;;;12.10;;
26325;SDS011;14032;52.510;7.342;2022-12-20T16:01:48;16.70;;;11.45;;
26325;SDS011;14032;52.510;7.342;2022-12-20T16:04:15;13.75;;;10.82;;
26325;SDS011;14032;52.510;7.342;2022-12-20T16:06:45;15.18;;;11.82;;
26325;SDS011;14032;52.510;7.342;2022-12-20T16:09:12;15.90;;;11.75;;
26325;SDS011;14032;52.510;7.342;2022-12-20T16:11:38;15.02;;;11.52;;
26325;SDS011;14032;52.510;7.342;2022-12-20T16:19:13;14.73;;;11.38;;
26325;SDS011;14032;52.510;7.342;2022-12-20T16:21:41;16.73;;;12.00;;
26325;SDS011;14032;52.510;7.342;2022-12-20T16:24:11;13.88;;;11.93;;
26325;SDS011;14032;52.510;7.342;2022-12-20T16:26:38;13.50;;;11.15;;
26325;SDS011;14032;52.510;7.342;2022-12-20T16:29:03;14.93;;;12.75;;
26325;SDS011;14032;52.510;7.342;2022-12-20T16:31:30;14.73;;;11.85;;
26325;SDS011;14032;52.510;7.342;2022-12-20T16:33:58;14.55;;;11.65;;
26325;SDS011;14032;52.510;7.342;2022-12-20T16:36:28;13.20;;;11.45;;
26325;SDS011;14032;52.510;7.342;2022-12-20T16:38:54;15.30;;;12.10;;
26325;SDS011;14032;52.510;7.342;2022-12-20T16:41:21;15.82;;;11.82;;
26325;SDS011;14032;52.510;7.342;2022-12-20T16:43:49;14.82;;;11.32;;
26325;SDS011;14032;52.510;7.342;2022-12-20T16:46:16;13.65;;;11.60;;
26325;SDS011;14032;52.510;7.342;2022-12-20T16:48:43;16.00;;;10.95;;
26325;SDS011;14032;52.510;7.342;2022-12-20T16:51:21;12.43;;;11.02;;
26325;SDS011;14032;52.510;7.342;2022-12-20T16:53:48;12.25;;;10.85;;
26325;SDS011;14032;52.510;7.342;2022-12-20T16:56:21;13.20;;;10.80;;
26325;SDS011;14032;52.510;7.342;2022-12-20T16:58:47;11.50;;;10.35;;